Time;durP1;ratioP1;P1;durP2;ratioP2;P2;SDS_P1;SDS_P2;PMS_P1;PMS_P2;Temp;Humidity;BMP_temperature;BMP_pressure;BME280_temperature;BME280_humidity;BME280_pressure;Samples;Min_cycle;Max_cycle;Signal;HPM_P1;HPM_P2
2022/07/24 00:02:08;;;;;;;8.98;5.88;;;;;;;;;;5109020;27;20052;-68
2022/07/24 00:04:34;;;;;;;7.03;6.32;;;;;;;;;;5113558;27;20051;-70
2022/07/24 00:07:01;;;;;;;6.55;5.95;;;;;;;;;;5113400;27;20058;-69
2022/07/24 00:09:27;;;;;;;10.25;5.93;;;;;;;;;;5111669;28;20062;-68
2022/07/24 00:11:54;;;;;;;9.38;6.50;;;;;;;;;;5113559;27;20055;-69
2022/07/24 00:14:20;;;;;;;8.75;6.82;;;;;;;;;;5103835;28;20521;-69
2022/07/24 00:16:47;;;;;;;7.35;6.57;;;;;;;;;;5113470;27;20055;-67
2022/07/24 00:19:13;;;;;;;7.38;6.50;;;;;;;;;;5113026;27;20183;-69
2022/07/24 00:21:39;;;;;;;9.35;6.53;;;;;;;;;;5111382;27;20056;-68
2022/07/24 00:24:06;;;;;;;10.82;6.32;;;;;;;;;;5111434;27;20076;-68
2022/07/24 00:26:32;;;;;;;7.70;6.60;;;;;;;;;;5110510;27;20056;-69
2022/07/24 00:28:58;;;;;;;8.18;6.15;;;;;;;;;;5112724;27;20088;-69
2022/07/24 00:31:25;;;;;;;9.48;6.53;;;;;;;;;;5112871;27;20105;-68
2022/07/24 00:33:57;;;;;;;10.13;6.90;;;;;;;;;;5110776;28;20593;-68
2022/07/24 00:36:23;;;;;;;7.28;6.53;;;;;;;;;;5101819;28;20531;-69
2022/07/24 00:38:49;;;;;;;8.20;6.53;;;;;;;;;;5112523;27;20147;-69
2022/07/24 00:41:16;;;;;;;7.80;6.60;;;;;;;;;;5110747;28;20056;-68
2022/07/24 00:43:58;;;;;;;7.78;6.97;;;;;;;;;;5112676;27;20044;-69
2022/07/24 00:46:24;;;;;;;7.57;6.72;;;;;;;;;;5113325;27;20082;-68
2022/07/24 00:48:51;;;;;;;11.27;7.13;;;;;;;;;;5111472;27;20480;-69
2022/07/24 00:51:17;;;;;;;7.38;6.60;;;;;;;;;;5111550;28;20052;-68
2022/07/24 00:53:44;;;;;;;9.25;6.70;;;;;;;;;;5112884;27;20052;-68
2022/07/24 00:56:10;;;;;;;8.85;7.40;;;;;;;;;;5112506;27;20052;-70
2022/07/24 00:58:36;;;;;;;9.02;7.53;;;;;;;;;;5112953;27;20483;-68
2022/07/24 01:01:03;;;;;;;10.65;7.68;;;;;;;;;;5111160;27;20085;-69
2022/07/24 01:03:29;;;;;;;7.93;6.82;;;;;;;;;;5113024;27;20504;-68
2022/07/24 01:05:56;;;;;;;8.52;6.97;;;;;;;;;;5102766;27;20052;-68
2022/07/24 01:08:22;;;;;;;9.77;7.13;;;;;;;;;;5102088;28;20065;-69
2022/07/24 01:10:48;;;;;;;11.40;7.97;;;;;;;;;;5109966;27;20489;-69
2022/07/24 01:13:15;;;;;;;9.27;7.80;;;;;;;;;;5112459;27;20051;-69
2022/07/24 01:15:41;;;;;;;8.70;6.90;;;;;;;;;;5108790;27;20052;-70
2022/07/24 01:18:08;;;;;;;8.52;7.63;;;;;;;;;;5111224;27;20162;-68
2022/07/24 01:20:35;;;;;;;8.63;7.70;;;;;;;;;;5109258;27;20503;-68
2022/07/24 01:23:02;;;;;;;8.30;7.50;;;;;;;;;;5112108;27;20484;-69
2022/07/24 01:25:28;;;;;;;8.02;7.22;;;;;;;;;;5112716;28;20048;-69
2022/07/24 01:27:55;;;;;;;9.15;7.70;;;;;;;;;;5111662;27;20150;-69
2022/07/24 01:30:22;;;;;;;8.82;7.85;;;;;;;;;;5107988;28;20131;-69
2022/07/24 01:32:49;;;;;;;8.88;7.35;;;;;;;;;;5112890;27;20056;-69
2022/07/24 01:35:15;;;;;;;9.00;7.10;;;;;;;;;;5111451;28;20054;-69
2022/07/24 01:37:48;;;;;;;9.10;7.45;;;;;;;;;;5112214;27;20135;-69
2022/07/24 01:40:14;;;;;;;9.13;7.25;;;;;;;;;;5112181;28;20496;-69
2022/07/24 01:42:41;;;;;;;9.05;7.88;;;;;;;;;;5112036;27;20139;-69
2022/07/24 01:45:07;;;;;;;8.68;7.53;;;;;;;;;;5109836;27;20128;-69
2022/07/24 01:47:33;;;;;;;9.80;8.20;;;;;;;;;;5113125;27;20498;-69
2022/07/24 01:50:00;;;;;;;9.82;8.10;;;;;;;;;;5109223;27;20060;-70
2022/07/24 01:52:26;;;;;;;9.35;8.45;;;;;;;;;;5115141;27;20058;-69
2022/07/24 01:54:53;;;;;;;8.80;7.88;;;;;;;;;;5124405;27;20052;-68
2022/07/24 01:57:19;;;;;;;9.32;8.32;;;;;;;;;;5110777;27;20080;-69
2022/07/24 01:59:46;;;;;;;9.48;8.57;;;;;;;;;;5095843;27;20131;-69
2022/07/24 02:02:13;;;;;;;10.70;9.52;;;;;;;;;;5111533;28;20056;-70
2022/07/24 02:04:39;;;;;;;9.80;8.80;;;;;;;;;;5111839;27;20048;-69
2022/07/24 02:07:06;;;;;;;10.30;9.15;;;;;;;;;;5112085;28;20052;-71
2022/07/24 02:09:32;;;;;;;9.70;8.70;;;;;;;;;;5098721;27;20045;-68
2022/07/24 02:11:58;;;;;;;10.65;8.18;;;;;;;;;;5103849;28;20517;-69
2022/07/24 02:14:24;;;;;;;9.70;8.73;;;;;;;;;;5111857;27;20052;-69
2022/07/24 02:16:51;;;;;;;10.27;8.93;;;;;;;;;;5111358;27;20503;-70
2022/07/24 02:19:17;;;;;;;10.23;9.13;;;;;;;;;;5110913;28;20486;-69
2022/07/24 02:21:43;;;;;;;10.63;9.57;;;;;;;;;;5110901;27;20059;-69
2022/07/24 02:24:10;;;;;;;10.52;9.40;;;;;;;;;;5111489;28;20052;-68
2022/07/24 02:26:36;;;;;;;9.25;8.35;;;;;;;;;;5112296;28;20063;-69
2022/07/24 02:29:03;;;;;;;10.90;9.70;;;;;;;;;;5105550;27;20055;-68
2022/07/24 02:31:29;;;;;;;9.52;8.55;;;;;;;;;;5112534;27;20094;-69
2022/07/24 02:33:56;;;;;;;12.35;10.20;;;;;;;;;;5110011;27;20503;-69
2022/07/24 02:36:23;;;;;;;13.55;9.23;;;;;;;;;;5109015;28;20048;-69
2022/07/24 02:38:49;;;;;;;11.68;9.55;;;;;;;;;;5102963;27;20052;-70
2022/07/24 02:41:15;;;;;;;12.20;9.13;;;;;;;;;;5110405;27;20142;-69
2022/07/24 02:43:42;;;;;;;13.63;10.45;;;;;;;;;;5098671;27;21083;-68
2022/07/24 02:46:08;;;;;;;11.07;9.82;;;;;;;;;;5109733;28;20056;-68
2022/07/24 02:48:34;;;;;;;10.77;9.57;;;;;;;;;;5112424;27;20066;-68
2022/07/24 02:51:01;;;;;;;12.25;10.30;;;;;;;;;;5117360;28;20129;-69
2022/07/24 02:53:27;;;;;;;12.15;9.85;;;;;;;;;;5117427;27;20048;-69
2022/07/24 02:55:53;;;;;;;14.25;10.15;;;;;;;;;;5117333;28;20060;-68
2022/07/24 02:58:20;;;;;;;11.95;10.75;;;;;;;;;;5117579;27;20507;-69
2022/07/24 03:00:46;;;;;;;15.48;10.00;;;;;;;;;;5116777;28;20626;-69
2022/07/24 03:03:13;;;;;;;10.80;9.32;;;;;;;;;;5099922;28;20637;-69
2022/07/24 03:05:39;;;;;;;12.38;10.80;;;;;;;;;;5115301;27;20479;-69
2022/07/24 03:08:05;;;;;;;12.80;10.80;;;;;;;;;;5115148;28;20052;-69
2022/07/24 03:10:32;;;;;;;13.85;11.18;;;;;;;;;;5114675;27;20058;-69
2022/07/24 03:12:58;;;;;;;13.90;11.13;;;;;;;;;;5114508;27;20582;-69
2022/07/24 03:15:24;;;;;;;13.85;11.80;;;;;;;;;;5112145;27;20052;-69
2022/07/24 03:17:52;;;;;;;12.35;11.07;;;;;;;;;;5114509;27;20067;-69
2022/07/24 03:20:21;;;;;;;11.90;10.63;;;;;;;;;;5100642;28;20056;-69
2022/07/24 03:22:47;;;;;;;12.23;10.95;;;;;;;;;;5109427;27;20056;-70
2022/07/24 03:25:15;;;;;;;15.48;11.35;;;;;;;;;;5115250;27;20056;-69
2022/07/24 03:27:42;;;;;;;12.88;11.52;;;;;;;;;;5112999;27;20134;-70
2022/07/24 03:30:09;;;;;;;14.57;12.18;;;;;;;;;;5114512;27;20056;-69
2022/07/24 03:32:35;;;;;;;14.30;11.98;;;;;;;;;;5111845;27;20056;-68
2022/07/24 03:35:02;;;;;;;13.90;11.77;;;;;;;;;;5113062;27;20148;-69
2022/07/24 03:37:28;;;;;;;13.40;11.90;;;;;;;;;;5114289;27;20545;-70
2022/07/24 03:39:55;;;;;;;19.25;12.50;;;;;;;;;;5113378;28;20062;-69
2022/07/24 03:42:21;;;;;;;13.68;11.88;;;;;;;;;;5113902;27;20110;-68
2022/07/24 03:44:47;;;;;;;16.50;12.07;;;;;;;;;;5106329;27;20056;-69
2022/07/24 03:47:14;;;;;;;13.80;11.50;;;;;;;;;;5112021;27;20053;-69
2022/07/24 03:49:40;;;;;;;13.15;11.80;;;;;;;;;;5113200;27;20058;-69
2022/07/24 03:52:06;;;;;;;14.98;12.57;;;;;;;;;;5111868;27;20469;-69
2022/07/24 03:54:34;;;;;;;14.85;11.35;;;;;;;;;;5095684;28;20068;-68
2022/07/24 03:57:00;;;;;;;14.20;12.70;;;;;;;;;;5111315;27;20052;-68
2022/07/24 03:59:27;;;;;;;15.15;12.40;;;;;;;;;;5113177;27;20055;-69
2022/07/24 04:01:53;;;;;;;16.25;12.50;;;;;;;;;;5112650;27;20127;-68
2022/07/24 04:04:19;;;;;;;14.90;12.48;;;;;;;;;;5112289;28;20102;-68
2022/07/24 04:06:46;;;;;;;14.63;12.65;;;;;;;;;;5113794;27;20570;-67
2022/07/24 04:09:13;;;;;;;14.40;12.90;;;;;;;;;;5112739;27;20056;-68
2022/07/24 04:11:39;;;;;;;16.25;12.60;;;;;;;;;;5113493;28;20051;-68
2022/07/24 04:14:05;;;;;;;14.70;12.57;;;;;;;;;;5113368;27;20101;-68
2022/07/24 04:16:32;;;;;;;14.77;12.52;;;;;;;;;;5112267;27;20051;-68
2022/07/24 04:18:58;;;;;;;14.13;12.63;;;;;;;;;;5112837;27;20503;-68
2022/07/24 04:21:31;;;;;;;15.88;12.60;;;;;;;;;;5114329;27;20506;-68
2022/07/24 04:23:57;;;;;;;16.13;13.55;;;;;;;;;;5112514;27;20052;-69
2022/07/24 04:26:24;;;;;;;15.30;12.90;;;;;;;;;;5114089;27;20058;-68
2022/07/24 04:28:50;;;;;;;14.63;13.13;;;;;;;;;;5113164;27;20099;-69
2022/07/24 04:31:17;;;;;;;16.17;14.20;;;;;;;;;;5113429;27;20062;-68
2022/07/24 04:33:43;;;;;;;15.45;13.48;;;;;;;;;;5110492;27;20055;-69
2022/07/24 04:36:10;;;;;;;20.90;13.73;;;;;;;;;;5113175;27;20059;-69
2022/07/24 04:38:38;;;;;;;21.33;14.40;;;;;;;;;;5111379;27;20054;-69
2022/07/24 04:41:04;;;;;;;16.85;14.38;;;;;;;;;;5113889;27;20052;-68
2022/07/24 04:43:31;;;;;;;21.08;14.68;;;;;;;;;;5112698;28;20131;-68
2022/07/24 04:45:57;;;;;;;19.80;15.63;;;;;;;;;;5113670;28;20056;-68
2022/07/24 04:48:24;;;;;;;19.52;15.90;;;;;;;;;;5111541;27;20844;-68
2022/07/24 04:50:51;;;;;;;18.55;14.05;;;;;;;;;;5110065;27;20087;-68
2022/07/24 04:53:18;;;;;;;17.17;14.70;;;;;;;;;;5104689;27;20072;-69
2022/07/24 04:55:44;;;;;;;20.80;15.30;;;;;;;;;;5111195;28;20135;-68
2022/07/24 04:58:10;;;;;;;17.30;14.20;;;;;;;;;;5113450;28;20052;-68
2022/07/24 05:00:37;;;;;;;20.13;16.02;;;;;;;;;;5111360;28;20044;-68
2022/07/24 05:03:03;;;;;;;21.38;15.50;;;;;;;;;;5113046;27;20142;-68
2022/07/24 05:05:29;;;;;;;20.17;15.18;;;;;;;;;;5111845;28;20147;-69
2022/07/24 05:07:55;;;;;;;18.10;15.63;;;;;;;;;;5112215;27;20063;-69
2022/07/24 05:10:22;;;;;;;17.75;15.48;;;;;;;;;;5112348;27;20178;-69
2022/07/24 05:12:48;;;;;;;21.50;16.88;;;;;;;;;;5113034;28;20054;-70
2022/07/24 05:15:14;;;;;;;25.45;17.33;;;;;;;;;;5113362;27;20055;-69
2022/07/24 05:17:41;;;;;;;18.10;15.77;;;;;;;;;;5109658;27;20086;-69
2022/07/24 05:20:08;;;;;;;24.15;17.50;;;;;;;;;;5113232;28;20590;-70
2022/07/24 05:22:34;;;;;;;19.02;16.38;;;;;;;;;;5112632;28;20143;-69
2022/07/24 05:25:00;;;;;;;19.92;16.85;;;;;;;;;;5113992;27;20129;-69
2022/07/24 05:27:27;;;;;;;21.17;15.93;;;;;;;;;;5104910;27;20118;-69
2022/07/24 05:29:53;;;;;;;21.85;14.88;;;;;;;;;;5097721;28;20147;-68
2022/07/24 05:32:19;;;;;;;18.35;15.25;;;;;;;;;;5110498;28;20055;-69
2022/07/24 05:34:45;;;;;;;20.38;15.02;;;;;;;;;;5110736;28;20063;-69
2022/07/24 05:37:12;;;;;;;18.90;15.07;;;;;;;;;;5111602;27;20056;-69
2022/07/24 05:39:38;;;;;;;18.92;14.68;;;;;;;;;;5112893;27;20048;-69
2022/07/24 05:42:05;;;;;;;15.27;11.82;;;;;;;;;;5111666;28;20566;-68
2022/07/24 05:44:31;;;;;;;16.55;12.93;;;;;;;;;;5111364;28;20513;-69
2022/07/24 05:46:57;;;;;;;18.10;12.82;;;;;;;;;;5113094;27;20076;-69
2022/07/24 05:49:24;;;;;;;15.38;12.23;;;;;;;;;;5112897;27;20534;-68
2022/07/24 05:51:51;;;;;;;17.33;11.90;;;;;;;;;;5112273;27;20088;-68
2022/07/24 05:54:17;;;;;;;15.52;12.05;;;;;;;;;;5109758;27;20138;-70
2022/07/24 05:56:44;;;;;;;15.55;10.52;;;;;;;;;;5112230;28;20052;-69
2022/07/24 05:59:10;;;;;;;11.50;9.32;;;;;;;;;;5104597;27;20515;-69
2022/07/24 06:01:36;;;;;;;12.15;8.43;;;;;;;;;;5106733;28;20058;-69
2022/07/24 06:04:03;;;;;;;10.43;7.40;;;;;;;;;;5111508;28;20068;-69
2022/07/24 06:06:29;;;;;;;7.68;6.25;;;;;;;;;;5112648;28;20111;-69
2022/07/24 06:08:55;;;;;;;9.80;6.32;;;;;;;;;;5111957;27;20135;-69
2022/07/24 06:11:22;;;;;;;8.18;6.45;;;;;;;;;;5110960;27;20056;-69
2022/07/24 06:13:49;;;;;;;9.18;7.03;;;;;;;;;;5127760;27;20059;-69
2022/07/24 06:16:16;;;;;;;9.80;6.55;;;;;;;;;;5110365;28;20102;-70
2022/07/24 06:18:43;;;;;;;9.52;7.28;;;;;;;;;;5112207;27;20403;-69
2022/07/24 06:21:09;;;;;;;15.90;8.32;;;;;;;;;;5105400;28;20155;-69
2022/07/24 06:23:35;;;;;;;10.32;7.85;;;;;;;;;;5103423;28;20143;-69
2022/07/24 06:26:02;;;;;;;10.10;7.13;;;;;;;;;;5110285;27;20143;-69
2022/07/24 06:28:28;;;;;;;10.27;7.72;;;;;;;;;;5110152;27;20590;-69
2022/07/24 06:30:54;;;;;;;16.05;8.52;;;;;;;;;;5110100;27;20598;-69
2022/07/24 06:33:24;;;;;;;10.45;7.03;;;;;;;;;;5104137;27;20540;-69
2022/07/24 06:35:51;;;;;;;7.47;6.72;;;;;;;;;;5109405;28;20083;-70
2022/07/24 06:38:17;;;;;;;9.73;7.00;;;;;;;;;;5110625;28;20049;-69
2022/07/24 06:40:43;;;;;;;8.48;6.25;;;;;;;;;;5110838;28;20055;-67
2022/07/24 06:43:09;;;;;;;7.10;6.13;;;;;;;;;;5110671;27;20048;-70
2022/07/24 06:45:36;;;;;;;9.27;6.43;;;;;;;;;;5111298;27;20142;-69
2022/07/24 06:48:03;;;;;;;7.57;5.45;;;;;;;;;;5097375;27;20054;-70
2022/07/24 06:50:30;;;;;;;9.88;5.97;;;;;;;;;;5112029;27;20060;-70
2022/07/24 06:52:56;;;;;;;7.00;5.35;;;;;;;;;;5111129;28;20139;-69
2022/07/24 06:55:23;;;;;;;8.30;5.25;;;;;;;;;;5114201;27;20052;-69
2022/07/24 06:57:49;;;;;;;6.32;5.43;;;;;;;;;;5113621;27;20494;-69
2022/07/24 07:00:15;;;;;;;6.38;4.38;;;;;;;;;;5113690;27;20052;-70
2022/07/24 07:02:42;;;;;;;6.25;4.65;;;;;;;;;;5113798;27;20519;-68
2022/07/24 07:05:09;;;;;;;5.68;4.72;;;;;;;;;;5113664;27;20140;-69
2022/07/24 07:07:35;;;;;;;7.47;4.43;;;;;;;;;;5112765;27;20131;-69
2022/07/24 07:10:02;;;;;;;8.02;4.50;;;;;;;;;;5112470;28;20081;-69
2022/07/24 07:12:28;;;;;;;5.07;4.15;;;;;;;;;;5111535;28;20102;-69
2022/07/24 07:14:55;;;;;;;5.28;4.05;;;;;;;;;;5107992;27;20175;-70
2022/07/24 07:17:21;;;;;;;4.88;4.05;;;;;;;;;;5109089;27;20183;-69
2022/07/24 07:19:47;;;;;;;5.78;3.45;;;;;;;;;;5109924;28;20109;-70
2022/07/24 07:22:14;;;;;;;5.93;3.78;;;;;;;;;;5101834;28;20063;-69
2022/07/24 07:24:41;;;;;;;5.13;3.88;;;;;;;;;;5104636;28;20139;-67
2022/07/24 07:27:11;;;;;;;4.88;3.72;;;;;;;;;;5090909;28;20115;-65
2022/07/24 07:29:38;;;;;;;4.50;3.83;;;;;;;;;;5091339;28;20397;-65
2022/07/24 07:32:04;;;;;;;8.68;3.80;;;;;;;;;;5095872;28;20045;-66
2022/07/24 07:34:30;;;;;;;5.20;3.65;;;;;;;;;;5095070;28;20059;-69
2022/07/24 07:36:57;;;;;;;3.80;3.40;;;;;;;;;;5114886;27;20083;-69
2022/07/24 07:39:23;;;;;;;6.03;3.50;;;;;;;;;;5114032;28;20052;-70
2022/07/24 07:41:49;;;;;;;4.63;3.00;;;;;;;;;;5115222;28;20135;-69
2022/07/24 07:44:16;;;;;;;4.13;3.72;;;;;;;;;;5110257;27;20520;-70
2022/07/24 07:46:43;;;;;;;4.15;3.03;;;;;;;;;;5114788;28;20139;-69
2022/07/24 07:49:09;;;;;;;5.90;3.42;;;;;;;;;;5114593;28;20446;-69
2022/07/24 07:51:36;;;;;;;5.43;3.10;;;;;;;;;;5114210;28;20102;-70
2022/07/24 07:54:06;;;;;;;4.57;3.33;;;;;;;;;;5115417;27;20091;-70
2022/07/24 07:56:32;;;;;;;4.35;3.70;;;;;;;;;;5115297;28;20052;-70
2022/07/24 07:58:58;;;;;;;7.20;3.22;;;;;;;;;;5115355;27;20489;-70
2022/07/24 08:01:27;;;;;;;5.05;3.70;;;;;;;;;;5114840;27;20063;-70
2022/07/24 08:03:53;;;;;;;4.43;3.60;;;;;;;;;;5115423;27;20139;-70
2022/07/24 08:06:19;;;;;;;5.60;4.00;;;;;;;;;;5115102;27;20047;-71
2022/07/24 08:08:49;;;;;;;4.90;3.47;;;;;;;;;;5114762;27;20056;-69
2022/07/24 08:11:15;;;;;;;6.10;3.20;;;;;;;;;;5113670;27;20052;-70
2022/07/24 08:13:41;;;;;;;5.03;3.47;;;;;;;;;;5113486;28;20089;-70
2022/07/24 08:16:08;;;;;;;4.80;3.90;;;;;;;;;;5114820;28;20060;-70
2022/07/24 08:18:34;;;;;;;5.13;3.35;;;;;;;;;;5114534;28;20078;-71
2022/07/24 08:21:01;;;;;;;7.18;3.85;;;;;;;;;;5113739;28;20054;-70
2022/07/24 08:23:27;;;;;;;5.32;3.50;;;;;;;;;;5114609;28;20570;-71
2022/07/24 08:25:53;;;;;;;5.30;3.38;;;;;;;;;;5114351;28;20054;-70
2022/07/24 08:28:22;;;;;;;8.68;4.03;;;;;;;;;;5113515;28;20521;-71
2022/07/24 08:30:49;;;;;;;4.68;3.47;;;;;;;;;;5114518;27;20076;-71
2022/07/24 08:33:16;;;;;;;5.65;3.28;;;;;;;;;;5114562;27;20151;-71
2022/07/24 08:35:42;;;;;;;5.18;3.28;;;;;;;;;;5114443;27;20051;-70
2022/07/24 08:38:09;;;;;;;4.95;3.97;;;;;;;;;;5114517;27;20059;-70
2022/07/24 08:40:36;;;;;;;6.18;4.00;;;;;;;;;;5113989;28;20574;-71
2022/07/24 08:43:04;;;;;;;6.07;3.67;;;;;;;;;;5113978;27;20063;-69
2022/07/24 08:45:33;;;;;;;4.60;3.30;;;;;;;;;;5112700;27;20056;-69
2022/07/24 08:48:01;;;;;;;3.53;2.97;;;;;;;;;;5114239;27;20058;-69
2022/07/24 08:50:27;;;;;;;4.60;3.15;;;;;;;;;;5112608;28;20060;-69
2022/07/24 08:52:56;;;;;;;3.80;3.03;;;;;;;;;;5113703;28;20051;-69
2022/07/24 08:55:22;;;;;;;3.03;2.72;;;;;;;;;;5113600;28;20047;-71
2022/07/24 08:57:49;;;;;;;3.97;3.10;;;;;;;;;;5113927;27;20448;-70
2022/07/24 09:00:15;;;;;;;4.63;2.83;;;;;;;;;;5112542;28;20067;-70
2022/07/24 09:02:41;;;;;;;4.03;2.92;;;;;;;;;;5113316;27;20054;-71
2022/07/24 09:05:08;;;;;;;3.05;2.72;;;;;;;;;;5101869;28;20084;-70
2022/07/24 09:07:34;;;;;;;5.13;2.95;;;;;;;;;;5093477;28;20056;-71
2022/07/24 09:10:08;;;;;;;4.00;3.00;;;;;;;;;;5093436;28;20053;-69
2022/07/24 09:12:37;;;;;;;4.15;3.10;;;;;;;;;;5093557;28;20088;-70
2022/07/24 09:15:10;;;;;;;3.70;2.38;;;;;;;;;;5092983;28;20143;-70
2022/07/24 09:17:46;;;;;;;4.55;2.63;;;;;;;;;;5107044;28;20048;-69
2022/07/24 09:20:12;;;;;;;4.53;2.80;;;;;;;;;;5112353;27;20083;-70
2022/07/24 09:22:41;;;;;;;6.30;2.95;;;;;;;;;;5113606;27;20056;-70
2022/07/24 09:25:11;;;;;;;3.88;3.20;;;;;;;;;;5112471;28;20469;-72
2022/07/24 09:27:44;;;;;;;3.10;2.80;;;;;;;;;;5113373;27;20056;-72
2022/07/24 09:30:20;;;;;;;5.78;2.95;;;;;;;;;;5113455;27;20135;-72
2022/07/24 09:32:58;;;;;;;3.97;2.42;;;;;;;;;;5109362;27;20480;-70
2022/07/24 09:35:31;;;;;;;4.65;2.67;;;;;;;;;;5112750;27;20507;-71
2022/07/24 09:37:58;;;;;;;3.58;2.67;;;;;;;;;;5112913;28;20075;-71
2022/07/24 09:40:29;;;;;;;4.75;2.97;;;;;;;;;;5112728;28;20616;-71
2022/07/24 09:43:17;;;;;;;4.13;2.45;;;;;;;;;;5113175;28;20499;-71
2022/07/24 09:46:02;;;;;;;6.47;2.75;;;;;;;;;;5110650;27;20048;-68
2022/07/24 09:48:39;;;;;;;4.05;2.63;;;;;;;;;;5092714;28;20057;-70
2022/07/24 09:51:09;;;;;;;2.97;2.40;;;;;;;;;;5091056;28;20059;-72
2022/07/24 09:53:36;;;;;;;4.07;2.67;;;;;;;;;;5092242;28;20552;-70
2022/07/24 09:56:08;;;;;;;3.28;2.95;;;;;;;;;;5104371;28;20059;-71
2022/07/24 09:58:39;;;;;;;4.32;2.20;;;;;;;;;;5111816;28;20105;-71
2022/07/24 10:01:08;;;;;;;3.33;2.50;;;;;;;;;;5112331;27;20143;-71
2022/07/24 10:03:39;;;;;;;3.47;2.30;;;;;;;;;;5112461;27;20555;-69
2022/07/24 10:06:07;;;;;;;2.47;2.28;;;;;;;;;;5110280;28;20131;-71
2022/07/24 10:08:35;;;;;;;4.22;2.35;;;;;;;;;;5112410;28;20465;-70
2022/07/24 10:11:02;;;;;;;3.38;2.40;;;;;;;;;;5112336;28;20570;-71
2022/07/24 10:13:29;;;;;;;3.35;2.20;;;;;;;;;;5112537;28;20056;-71
2022/07/24 10:16:11;;;;;;;3.65;2.20;;;;;;;;;;5112268;28;20134;-70
2022/07/24 10:18:45;;;;;;;3.35;2.83;;;;;;;;;;5112311;27;20052;-70
2022/07/24 10:21:12;;;;;;;;;;;;;;;;;;5112621;28;20174;-70
2022/07/24 10:23:47;;;;;;;4.10;2.03;;;;;;;;;;5109799;28;45268;-71
2022/07/24 10:26:22;;;;;;;2.88;2.22;;;;;;;;;;5111426;27;20055;-70
2022/07/24 10:28:54;;;;;;;3.20;2.13;;;;;;;;;;5104383;28;20063;-70
2022/07/24 10:31:20;;;;;;;10.88;3.08;;;;;;;;;;5095638;28;20542;-70
2022/07/24 10:33:50;;;;;;;8.63;2.55;;;;;;;;;;5112123;27;20048;-72
2022/07/24 10:36:19;;;;;;;2.97;2.67;;;;;;;;;;5101773;27;20059;-72
2022/07/24 10:38:55;;;;;;;3.28;2.33;;;;;;;;;;5099283;28;20109;-72
2022/07/24 10:41:23;;;;;;;4.10;2.28;;;;;;;;;;5093269;27;20143;-73
2022/07/24 10:44:09;;;;;;;2.75;2.45;;;;;;;;;;5099811;28;20166;-72
2022/07/24 10:46:55;;;;;;;3.42;2.40;;;;;;;;;;5110368;28;20049;-73
2022/07/24 10:49:41;;;;;;;3.35;2.33;;;;;;;;;;5110416;28;20091;-72
2022/07/24 10:52:09;;;;;;;3.63;2.47;;;;;;;;;;5112482;28;20055;-71
2022/07/24 10:54:36;;;;;;;2.67;2.05;;;;;;;;;;5113126;27;20058;-73
2022/07/24 10:57:03;;;;;;;3.50;2.20;;;;;;;;;;5112936;27;20063;-72
2022/07/24 10:59:36;;;;;;;3.13;2.33;;;;;;;;;;5112497;27;20139;-72
2022/07/24 11:02:21;;;;;;;3.42;2.20;;;;;;;;;;5113064;28;20134;-72
2022/07/24 11:05:07;;;;;;;3.83;2.45;;;;;;;;;;5106318;28;20510;-71
2022/07/24 11:07:34;;;;;;;2.45;2.10;;;;;;;;;;5105233;27;20051;-73
2022/07/24 11:10:07;;;;;;;3.67;2.10;;;;;;;;;;5117492;27;20058;-71
2022/07/24 11:12:40;;;;;;;3.22;2.40;;;;;;;;;;5117187;27;20078;-72
2022/07/24 11:17:53;;;;;;;4.85;2.28;;;;;;;;;;5120441;27;20057;-70
2022/07/24 11:20:21;;;;;;;3.58;2.50;;;;;;;;;;5120979;27;20052;-70
2022/07/24 11:22:55;;;;;;;3.78;2.13;;;;;;;;;;5117511;27;20499;-71
2022/07/24 11:25:28;;;;;;;3.72;2.20;;;;;;;;;;5102674;27;20484;-71
2022/07/24 11:27:56;;;;;;;3.88;2.38;;;;;;;;;;5116628;27;20575;-71
2022/07/24 11:30:24;;;;;;;6.82;2.45;;;;;;;;;;5107397;27;20056;-69
2022/07/24 11:32:50;;;;;;;3.08;2.00;;;;;;;;;;5117840;27;20058;-71
2022/07/24 11:35:17;;;;;;;3.47;1.98;;;;;;;;;;5113624;27;20514;-72
2022/07/24 11:37:43;;;;;;;2.47;2.00;;;;;;;;;;5112520;27;20506;-72
2022/07/24 11:40:14;;;;;;;3.15;2.08;;;;;;;;;;5114542;27;20056;-72
2022/07/24 11:42:40;;;;;;;4.28;2.05;;;;;;;;;;5114230;27;20104;-72
2022/07/24 11:45:07;;;;;;;3.65;2.03;;;;;;;;;;5106214;27;20051;-70
2022/07/24 11:47:33;;;;;;;5.30;2.45;;;;;;;;;;5113965;27;20127;-73
2022/07/24 11:50:04;;;;;;;2.10;2.00;;;;;;;;;;5113773;27;20499;-72
2022/07/24 11:52:34;;;;;;;3.58;2.03;;;;;;;;;;5110923;27;20114;-72
2022/07/24 11:55:03;;;;;;;3.30;2.22;;;;;;;;;;5112090;27;20048;-71
2022/07/24 11:57:35;;;;;;;3.58;1.98;;;;;;;;;;5127997;27;20418;-71
2022/07/24 12:00:27;;;;;;;5.70;2.35;;;;;;;;;;5123776;27;20079;-71
2022/07/24 12:03:00;;;;;;;4.25;2.20;;;;;;;;;;5108557;28;20079;-70
2022/07/24 12:05:29;;;;;;;2.00;1.90;;;;;;;;;;5123342;27;20055;-70
2022/07/24 12:07:56;;;;;;;2.47;2.20;;;;;;;;;;5108439;27;20144;-70
2022/07/24 12:10:23;;;;;;;2.30;2.10;;;;;;;;;;5107454;27;20058;-71
2022/07/24 12:12:51;;;;;;;2.50;1.88;;;;;;;;;;5113355;28;20056;-71
2022/07/24 12:15:17;;;;;;;4.93;2.58;;;;;;;;;;5123734;27;20058;-71
2022/07/24 12:18:11;;;;;;;4.25;2.20;;;;;;;;;;5113993;27;20058;-71
2022/07/24 12:20:41;;;;;;;4.93;2.00;;;;;;;;;;5110118;27;20054;-71
2022/07/24 12:23:12;;;;;;;5.25;2.20;;;;;;;;;;5114081;28;20531;-72
2022/07/24 12:25:39;;;;;;;3.83;1.95;;;;;;;;;;5113771;27;20139;-72
2022/07/24 12:28:17;;;;;;;4.57;2.08;;;;;;;;;;5112454;27;20048;-70
2022/07/24 12:30:44;;;;;;;2.15;1.98;;;;;;;;;;5114848;27;20143;-70
2022/07/24 12:33:11;;;;;;;4.18;2.20;;;;;;;;;;5122424;27;20058;-71
2022/07/24 12:35:56;;;;;;;4.57;2.08;;;;;;;;;;5113112;27;20500;-71
2022/07/24 12:38:32;;;;;;;3.80;1.70;;;;;;;;;;5104432;27;20047;-69
2022/07/24 12:41:13;;;;;;;4.63;1.90;;;;;;;;;;5121887;27;20102;-70
2022/07/24 12:43:53;;;;;;;2.85;2.20;;;;;;;;;;5093209;28;20496;-71
2022/07/24 12:46:20;;;;;;;1.95;1.55;;;;;;;;;;5108062;28;20139;-69
2022/07/24 12:49:02;;;;;;;3.15;2.13;;;;;;;;;;5121278;27;20056;-70
2022/07/24 12:51:48;;;;;;;2.63;2.03;;;;;;;;;;5131691;27;20055;-69
2022/07/24 12:54:18;;;;;;;2.85;2.08;;;;;;;;;;5113017;27;20052;-70
2022/07/24 12:56:45;;;;;;;2.47;1.85;;;;;;;;;;5112638;27;20048;-69
2022/07/24 12:59:33;;;;;;;2.67;1.75;;;;;;;;;;5111243;28;20131;-70
2022/07/24 13:02:05;;;;;;;2.40;1.80;;;;;;;;;;5113089;27;20055;-70
2022/07/24 13:04:32;;;;;;;2.28;1.92;;;;;;;;;;5112133;27;20593;-69
2022/07/24 13:06:59;;;;;;;2.53;1.70;;;;;;;;;;5109323;28;20447;-69
2022/07/24 13:09:26;;;;;;;2.42;2.05;;;;;;;;;;5112785;27;20051;-71
2022/07/24 13:11:53;;;;;;;2.33;1.90;;;;;;;;;;5113515;27;20051;-69
2022/07/24 13:14:21;;;;;;;2.65;1.63;;;;;;;;;;5120194;27;20058;-70
2022/07/24 13:16:48;;;;;;;1.60;1.50;;;;;;;;;;5112698;27;20079;-70
2022/07/24 13:19:15;;;;;;;3.28;1.52;;;;;;;;;;5117419;27;20056;-70
2022/07/24 13:21:42;;;;;;;2.75;1.60;;;;;;;;;;5121164;27;20105;-72
2022/07/24 13:24:09;;;;;;;2.90;1.67;;;;;;;;;;5113041;27;20138;-70
2022/07/24 13:26:36;;;;;;;3.42;1.85;;;;;;;;;;5112444;27;20056;-70
2022/07/24 13:29:03;;;;;;;6.35;1.90;;;;;;;;;;5111892;27;20513;-70
2022/07/24 13:31:30;;;;;;;5.18;1.95;;;;;;;;;;5124881;27;20113;-68
2022/07/24 13:33:56;;;;;;;2.60;2.20;;;;;;;;;;5111714;27;20056;-69
2022/07/24 13:36:23;;;;;;;3.60;1.90;;;;;;;;;;5113806;27;20499;-69
2022/07/24 13:38:50;;;;;;;4.57;1.73;;;;;;;;;;5112857;27;20120;-68
2022/07/24 13:41:18;;;;;;;2.40;1.45;;;;;;;;;;5112996;27;20056;-69
2022/07/24 13:43:45;;;;;;;6.30;2.22;;;;;;;;;;5108135;27;20048;-69
2022/07/24 13:46:12;;;;;;;2.00;1.80;;;;;;;;;;5111699;27;20188;-68
2022/07/24 13:48:39;;;;;;;5.75;2.10;;;;;;;;;;5118260;27;20056;-69
2022/07/24 13:51:05;;;;;;;4.47;1.88;;;;;;;;;;5113912;27;20048;-67
2022/07/24 13:53:32;;;;;;;1.83;1.73;;;;;;;;;;5111770;27;20479;-70
2022/07/24 13:55:58;;;;;;;2.85;1.80;;;;;;;;;;5104958;28;20048;-67
2022/07/24 13:58:24;;;;;;;3.22;2.08;;;;;;;;;;5111152;28;20063;-67
2022/07/24 14:00:51;;;;;;;1.90;1.67;;;;;;;;;;5123763;27;20102;-67
2022/07/24 14:03:22;;;;;;;1.70;1.60;;;;;;;;;;5117780;27;20075;-68
2022/07/24 14:06:04;;;;;;;3.72;2.17;;;;;;;;;;5118967;27;20052;-69
2022/07/24 14:08:31;;;;;;;2.67;1.70;;;;;;;;;;5105870;28;20113;-67
2022/07/24 14:10:57;;;;;;;3.72;1.88;;;;;;;;;;5104172;28;20515;-68
2022/07/24 14:13:24;;;;;;;2.47;1.60;;;;;;;;;;5117653;27;20490;-67
2022/07/24 14:15:50;;;;;;;4.57;1.55;;;;;;;;;;5111285;27;20150;-68
2022/07/24 14:18:16;;;;;;;1.98;1.75;;;;;;;;;;5107795;27;20056;-68
2022/07/24 14:20:43;;;;;;;3.72;1.90;;;;;;;;;;5109000;27;20058;-67
2022/07/24 14:23:09;;;;;;;3.75;1.83;;;;;;;;;;5131957;27;20055;-69
2022/07/24 14:25:35;;;;;;;2.40;1.50;;;;;;;;;;5115658;27;20632;-68
2022/07/24 14:28:02;;;;;;;4.05;1.80;;;;;;;;;;5111306;28;20052;-68
2022/07/24 14:30:28;;;;;;;2.72;1.98;;;;;;;;;;5117571;27;20483;-68
2022/07/24 14:32:55;;;;;;;2.35;1.90;;;;;;;;;;5111458;27;20086;-67
2022/07/24 14:35:21;;;;;;;3.45;1.70;;;;;;;;;;5109708;27;20054;-67
2022/07/24 14:37:47;;;;;;;4.65;1.83;;;;;;;;;;5111597;27;20071;-67
2022/07/24 14:40:14;;;;;;;1.90;1.70;;;;;;;;;;5111230;27;20044;-67
2022/07/24 14:42:40;;;;;;;3.38;1.80;;;;;;;;;;5111369;27;20171;-68
2022/07/24 14:45:06;;;;;;;2.40;1.90;;;;;;;;;;5121446;27;20051;-69